Terminal Aerodrome Forecast
Issued by NWS

Home | Current Version | Previous Version | Text Only | Print | Product List | Glossary Off
Versions: 1 2 3 4 5 6 7 8 9 10 11 12 13 14 15 16 17 18 19 20

472
FTUS43 KPAH 052320
TAFCGI
TAF
KCGI 052320Z 0600/0624 10007KT P6SM SCT020
     FM060200 06004KT P6SM OVC015
     FM060600 01005KT 2SM -RA BR OVC007
     FM061400 32010KT 4SM -DZ BR OVC015
     FM061600 33014G22KT P6SM BKN025
     FM062100 34010KT P6SM SCT030=

USA.gov is the U.S. government's official web portal to all federal, state and local government web resources and services.